sensor_id;sensor_type;location;lat;lon;timestamp;temperature;humidity
23289;DHT22;11813;50.834;4.280;2023-10-19T00:00:33;17.30;99.90
23289;DHT22;11813;50.834;4.280;2023-10-19T00:02:59;17.30;99.90
23289;DHT22;11813;50.834;4.280;2023-10-19T00:05:31;17.30;99.90
23289;DHT22;11813;50.834;4.280;2023-10-19T00:08:01;17.30;99.90
23289;DHT22;11813;50.834;4.280;2023-10-19T00:10:31;17.30;99.90
23289;DHT22;11813;50.834;4.280;2023-10-19T00:13:04;17.30;99.90
23289;DHT22;11813;50.834;4.280;2023-10-19T00:15:32;17.30;99.90
23289;DHT22;11813;50.834;4.280;2023-10-19T00:18:00;17.30;99.90
23289;DHT22;11813;50.834;4.280;2023-10-19T00:20:47;17.30;99.90
23289;DHT22;11813;50.834;4.280;2023-10-19T00:23:18;17.30;99.90
23289;DHT22;11813;50.834;4.280;2023-10-19T00:25:47;17.30;99.90
23289;DHT22;11813;50.834;4.280;2023-10-19T00:28:20;17.30;99.90
23289;DHT22;11813;50.834;4.280;2023-10-19T00:30:48;17.30;99.90
23289;DHT22;11813;50.834;4.280;2023-10-19T00:33:15;17.20;99.90
23289;DHT22;11813;50.834;4.280;2023-10-19T00:35:46;17.20;99.90
23289;DHT22;11813;50.834;4.280;2023-10-19T00:38:30;17.30;99.90
23289;DHT22;11813;50.834;4.280;2023-10-19T00:41:09;17.30;99.90
23289;DHT22;11813;50.834;4.280;2023-10-19T00:43:40;17.30;99.90
23289;DHT22;11813;50.834;4.280;2023-10-19T00:48:50;17.40;99.90
23289;DHT22;11813;50.834;4.280;2023-10-19T00:51:19;17.40;99.90
23289;DHT22;11813;50.834;4.280;2023-10-19T00:54:17;17.30;99.90
23289;DHT22;11813;50.834;4.280;2023-10-19T00:56:53;17.40;99.90
23289;DHT22;11813;50.834;4.280;2023-10-19T00:59:22;17.30;99.90
23289;DHT22;11813;50.834;4.280;2023-10-19T01:01:53;17.30;99.90
23289;DHT22;11813;50.834;4.280;2023-10-19T01:04:29;17.20;99.90
23289;DHT22;11813;50.834;4.280;2023-10-19T01:06:59;17.30;99.90
23289;DHT22;11813;50.834;4.280;2023-10-19T01:09:37;17.30;99.90
23289;DHT22;11813;50.834;4.280;2023-10-19T01:12:04;17.30;99.90
23289;DHT22;11813;50.834;4.280;2023-10-19T01:15:16;17.30;99.90
23289;DHT22;11813;50.834;4.280;2023-10-19T01:17:45;17.20;99.90
23289;DHT22;11813;50.834;4.280;2023-10-19T01:20:16;17.20;99.90
23289;DHT22;11813;50.834;4.280;2023-10-19T01:25:59;17.20;99.90
23289;DHT22;11813;50.834;4.280;2023-10-19T01:28:29;17.20;99.90
23289;DHT22;11813;50.834;4.280;2023-10-19T01:33:43;17.20;99.90
23289;DHT22;11813;50.834;4.280;2023-10-19T01:36:10;17.20;99.90
23289;DHT22;11813;50.834;4.280;2023-10-19T01:38:48;17.20;99.90
23289;DHT22;11813;50.834;4.280;2023-10-19T01:41:13;17.30;99.90
23289;DHT22;11813;50.834;4.280;2023-10-19T01:43:43;17.30;99.90
23289;DHT22;11813;50.834;4.280;2023-10-19T01:46:09;17.30;99.90
23289;DHT22;11813;50.834;4.280;2023-10-19T01:48:41;17.30;99.90
23289;DHT22;11813;50.834;4.280;2023-10-19T01:51:08;17.30;99.90
23289;DHT22;11813;50.834;4.280;2023-10-19T01:53:39;17.20;99.90
23289;DHT22;11813;50.834;4.280;2023-10-19T01:56:06;17.30;99.90
23289;DHT22;11813;50.834;4.280;2023-10-19T01:58:35;17.20;99.90
23289;DHT22;11813;50.834;4.280;2023-10-19T02:01:03;17.30;99.90
23289;DHT22;11813;50.834;4.280;2023-10-19T02:03:34;17.30;99.90
23289;DHT22;11813;50.834;4.280;2023-10-19T02:06:01;17.20;99.90
23289;DHT22;11813;50.834;4.280;2023-10-19T02:11:15;17.10;99.90
23289;DHT22;11813;50.834;4.280;2023-10-19T02:13:48;17.10;99.90
23289;DHT22;11813;50.834;4.280;2023-10-19T02:16:17;17.10;99.90
23289;DHT22;11813;50.834;4.280;2023-10-19T02:18:48;17.00;99.90
23289;DHT22;11813;50.834;4.280;2023-10-19T02:21:14;17.00;99.90
23289;DHT22;11813;50.834;4.280;2023-10-19T02:23:41;17.00;99.90
23289;DHT22;11813;50.834;4.280;2023-10-19T02:26:08;17.00;99.90
23289;DHT22;11813;50.834;4.280;2023-10-19T02:28:33;17.00;99.90
23289;DHT22;11813;50.834;4.280;2023-10-19T02:31:05;17.00;99.90
23289;DHT22;11813;50.834;4.280;2023-10-19T02:33:48;17.00;99.90
23289;DHT22;11813;50.834;4.280;2023-10-19T02:36:19;17.00;99.90
23289;DHT22;11813;50.834;4.280;2023-10-19T02:38:46;17.00;99.90
23289;DHT22;11813;50.834;4.280;2023-10-19T02:41:16;17.00;99.90
23289;DHT22;11813;50.834;4.280;2023-10-19T02:43:43;17.00;99.90
23289;DHT22;11813;50.834;4.280;2023-10-19T02:46:16;16.90;99.90
23289;DHT22;11813;50.834;4.280;2023-10-19T02:48:43;17.00;99.90
23289;DHT22;11813;50.834;4.280;2023-10-19T02:51:15;17.00;99.90
23289;DHT22;11813;50.834;4.280;2023-10-19T02:53:41;17.00;99.90
23289;DHT22;11813;50.834;4.280;2023-10-19T02:56:15;17.00;99.90
23289;DHT22;11813;50.834;4.280;2023-10-19T02:58:45;17.00;99.90
23289;DHT22;11813;50.834;4.280;2023-10-19T03:01:19;16.90;99.90
23289;DHT22;11813;50.834;4.280;2023-10-19T03:03:51;17.00;99.90
23289;DHT22;11813;50.834;4.280;2023-10-19T03:06:20;17.00;99.90
23289;DHT22;11813;50.834;4.280;2023-10-19T03:08:47;17.00;99.90
23289;DHT22;11813;50.834;4.280;2023-10-19T03:11:14;17.10;99.90
23289;DHT22;11813;50.834;4.280;2023-10-19T03:13:40;17.10;99.90
23289;DHT22;11813;50.834;4.280;2023-10-19T03:16:07;17.00;99.90
23289;DHT22;11813;50.834;4.280;2023-10-19T03:18:34;17.00;99.90
23289;DHT22;11813;50.834;4.280;2023-10-19T03:21:04;17.00;99.90
23289;DHT22;11813;50.834;4.280;2023-10-19T03:23:29;17.00;99.90
23289;DHT22;11813;50.834;4.280;2023-10-19T03:25:59;17.00;99.90
23289;DHT22;11813;50.834;4.280;2023-10-19T03:28:49;17.00;99.90
23289;DHT22;11813;50.834;4.280;2023-10-19T03:31:23;17.00;99.90
23289;DHT22;11813;50.834;4.280;2023-10-19T03:33:52;17.10;99.90
23289;DHT22;11813;50.834;4.280;2023-10-19T03:36:23;17.10;99.90
23289;DHT22;11813;50.834;4.280;2023-10-19T03:38:49;17.10;99.90
23289;DHT22;11813;50.834;4.280;2023-10-19T03:41:22;17.00;99.90
23289;DHT22;11813;50.834;4.280;2023-10-19T03:43:51;17.10;99.90
23289;DHT22;11813;50.834;4.280;2023-10-19T03:46:19;17.10;99.90
23289;DHT22;11813;50.834;4.280;2023-10-19T03:48:57;17.10;99.90
23289;DHT22;11813;50.834;4.280;2023-10-19T03:51:26;17.20;99.90
23289;DHT22;11813;50.834;4.280;2023-10-19T03:53:52;17.10;99.90
23289;DHT22;11813;50.834;4.280;2023-10-19T03:56:24;17.10;99.90
23289;DHT22;11813;50.834;4.280;2023-10-19T03:58:49;17.10;99.90
23289;DHT22;11813;50.834;4.280;2023-10-19T04:01:17;17.10;99.90
23289;DHT22;11813;50.834;4.280;2023-10-19T04:03:45;17.10;99.90
23289;DHT22;11813;50.834;4.280;2023-10-19T04:06:11;17.10;99.90
23289;DHT22;11813;50.834;4.280;2023-10-19T04:08:40;17.10;99.90
23289;DHT22;11813;50.834;4.280;2023-10-19T04:11:08;17.10;99.90
23289;DHT22;11813;50.834;4.280;2023-10-19T04:13:34;17.10;99.90
23289;DHT22;11813;50.834;4.280;2023-10-19T04:16:03;17.10;99.90
23289;DHT22;11813;50.834;4.280;2023-10-19T04:18:29;17.20;99.90
23289;DHT22;11813;50.834;4.280;2023-10-19T04:20:54;17.20;99.90
23289;DHT22;11813;50.834;4.280;2023-10-19T04:23:24;17.20;99.90
23289;DHT22;11813;50.834;4.280;2023-10-19T04:25:54;17.20;99.90
23289;DHT22;11813;50.834;4.280;2023-10-19T04:28:24;17.10;99.90
23289;DHT22;11813;50.834;4.280;2023-10-19T04:31:21;17.10;99.90
23289;DHT22;11813;50.834;4.280;2023-10-19T04:33:49;17.10;99.90
23289;DHT22;11813;50.834;4.280;2023-10-19T04:36:15;17.00;99.90
23289;DHT22;11813;50.834;4.280;2023-10-19T04:38:41;17.10;99.90
23289;DHT22;11813;50.834;4.280;2023-10-19T04:41:10;17.20;99.90
23289;DHT22;11813;50.834;4.280;2023-10-19T04:43:37;17.10;99.90
23289;DHT22;11813;50.834;4.280;2023-10-19T04:46:07;17.20;99.90
23289;DHT22;11813;50.834;4.280;2023-10-19T04:48:37;17.20;99.90
23289;DHT22;11813;50.834;4.280;2023-10-19T04:51:05;17.10;99.90
23289;DHT22;11813;50.834;4.280;2023-10-19T04:53:31;17.10;99.90
23289;DHT22;11813;50.834;4.280;2023-10-19T04:55:58;17.10;99.90
23289;DHT22;11813;50.834;4.280;2023-10-19T04:58:26;17.10;99.90
23289;DHT22;11813;50.834;4.280;2023-10-19T05:00:52;17.10;99.90
23289;DHT22;11813;50.834;4.280;2023-10-19T05:03:18;17.10;99.90
23289;DHT22;11813;50.834;4.280;2023-10-19T05:05:44;17.00;99.90
23289;DHT22;11813;50.834;4.280;2023-10-19T05:08:10;17.00;99.90
23289;DHT22;11813;50.834;4.280;2023-10-19T05:10:36;17.10;99.90
23289;DHT22;11813;50.834;4.280;2023-10-19T05:13:02;17.00;99.90
23289;DHT22;11813;50.834;4.280;2023-10-19T05:15:29;17.10;99.90
23289;DHT22;11813;50.834;4.280;2023-10-19T05:17:54;17.10;99.90
23289;DHT22;11813;50.834;4.280;2023-10-19T05:20:20;17.20;99.90
23289;DHT22;11813;50.834;4.280;2023-10-19T05:22:47;17.10;99.90
23289;DHT22;11813;50.834;4.280;2023-10-19T05:25:12;17.10;99.90
23289;DHT22;11813;50.834;4.280;2023-10-19T05:27:38;17.10;99.90
23289;DHT22;11813;50.834;4.280;2023-10-19T05:30:05;17.10;99.90
23289;DHT22;11813;50.834;4.280;2023-10-19T05:32:31;17.10;99.90
23289;DHT22;11813;50.834;4.280;2023-10-19T05:34:57;17.10;99.90
23289;DHT22;11813;50.834;4.280;2023-10-19T05:37:23;17.10;99.90
23289;DHT22;11813;50.834;4.280;2023-10-19T05:39:51;17.10;99.90
23289;DHT22;11813;50.834;4.280;2023-10-19T05:42:17;17.10;99.90
23289;DHT22;11813;50.834;4.280;2023-10-19T05:44:43;17.00;99.90
23289;DHT22;11813;50.834;4.280;2023-10-19T05:47:09;17.10;99.90
23289;DHT22;11813;50.834;4.280;2023-10-19T05:49:34;17.00;99.90
23289;DHT22;11813;50.834;4.280;2023-10-19T05:52:00;17.00;99.90
23289;DHT22;11813;50.834;4.280;2023-10-19T05:54:26;17.00;99.90
23289;DHT22;11813;50.834;4.280;2023-10-19T05:56:52;17.00;99.90
23289;DHT22;11813;50.834;4.280;2023-10-19T05:59:19;17.00;99.90
23289;DHT22;11813;50.834;4.280;2023-10-19T06:01:44;17.00;99.90
23289;DHT22;11813;50.834;4.280;2023-10-19T06:04:13;17.00;99.90
23289;DHT22;11813;50.834;4.280;2023-10-19T06:06:39;17.00;99.90
23289;DHT22;11813;50.834;4.280;2023-10-19T06:09:08;17.00;99.90
23289;DHT22;11813;50.834;4.280;2023-10-19T06:11:35;17.00;99.90
23289;DHT22;11813;50.834;4.280;2023-10-19T06:14:04;17.00;99.90
23289;DHT22;11813;50.834;4.280;2023-10-19T06:16:32;17.10;99.90
23289;DHT22;11813;50.834;4.280;2023-10-19T06:18:59;17.10;99.90
23289;DHT22;11813;50.834;4.280;2023-10-19T06:21:24;17.10;99.90
23289;DHT22;11813;50.834;4.280;2023-10-19T06:23:50;17.10;99.90
23289;DHT22;11813;50.834;4.280;2023-10-19T06:26:17;17.10;99.90
23289;DHT22;11813;50.834;4.280;2023-10-19T06:28:43;17.20;99.90
23289;DHT22;11813;50.834;4.280;2023-10-19T06:31:08;17.20;99.90
23289;DHT22;11813;50.834;4.280;2023-10-19T06:33:34;17.10;99.90
23289;DHT22;11813;50.834;4.280;2023-10-19T06:36:01;17.10;99.90
23289;DHT22;11813;50.834;4.280;2023-10-19T06:38:29;17.10;99.90
23289;DHT22;11813;50.834;4.280;2023-10-19T06:40:54;17.00;99.90
23289;DHT22;11813;50.834;4.280;2023-10-19T06:43:20;17.00;99.90
23289;DHT22;11813;50.834;4.280;2023-10-19T06:45:49;17.10;99.90
23289;DHT22;11813;50.834;4.280;2023-10-19T06:48:15;17.10;99.90
23289;DHT22;11813;50.834;4.280;2023-10-19T06:50:40;17.10;99.90
23289;DHT22;11813;50.834;4.280;2023-10-19T06:53:06;17.10;99.90
23289;DHT22;11813;50.834;4.280;2023-10-19T06:55:32;17.00;99.90
23289;DHT22;11813;50.834;4.280;2023-10-19T06:57:58;17.00;99.90
23289;DHT22;11813;50.834;4.280;2023-10-19T07:00:25;17.00;99.90
23289;DHT22;11813;50.834;4.280;2023-10-19T07:02:55;17.00;99.90
23289;DHT22;11813;50.834;4.280;2023-10-19T07:05:22;17.00;99.90
23289;DHT22;11813;50.834;4.280;2023-10-19T07:07:50;17.00;99.90
23289;DHT22;11813;50.834;4.280;2023-10-19T07:10:18;17.10;99.90
23289;DHT22;11813;50.834;4.280;2023-10-19T07:12:46;17.20;99.90
23289;DHT22;11813;50.834;4.280;2023-10-19T07:15:12;17.20;99.90
23289;DHT22;11813;50.834;4.280;2023-10-19T07:17:45;17.20;99.90
23289;DHT22;11813;50.834;4.280;2023-10-19T07:20:12;17.30;99.90
23289;DHT22;11813;50.834;4.280;2023-10-19T07:22:58;17.30;99.90
23289;DHT22;11813;50.834;4.280;2023-10-19T07:25:43;17.40;99.90
23289;DHT22;11813;50.834;4.280;2023-10-19T07:28:12;17.40;99.90
23289;DHT22;11813;50.834;4.280;2023-10-19T07:30:38;17.30;99.90
23289;DHT22;11813;50.834;4.280;2023-10-19T07:33:05;17.30;99.90
23289;DHT22;11813;50.834;4.280;2023-10-19T07:35:34;17.30;99.90
23289;DHT22;11813;50.834;4.280;2023-10-19T07:38:00;17.20;99.90
23289;DHT22;11813;50.834;4.280;2023-10-19T07:40:27;17.20;99.90
23289;DHT22;11813;50.834;4.280;2023-10-19T07:42:53;17.30;99.90
23289;DHT22;11813;50.834;4.280;2023-10-19T07:45:20;17.40;99.90
23289;DHT22;11813;50.834;4.280;2023-10-19T07:47:47;17.30;99.90
23289;DHT22;11813;50.834;4.280;2023-10-19T07:50:13;17.40;99.90
23289;DHT22;11813;50.834;4.280;2023-10-19T07:52:43;17.40;99.90
23289;DHT22;11813;50.834;4.280;2023-10-19T07:55:09;17.40;99.90
23289;DHT22;11813;50.834;4.280;2023-10-19T07:57:36;17.40;99.90
23289;DHT22;11813;50.834;4.280;2023-10-19T08:00:01;17.40;99.90
23289;DHT22;11813;50.834;4.280;2023-10-19T08:02:29;17.40;99.90
23289;DHT22;11813;50.834;4.280;2023-10-19T08:04:55;17.50;99.90
23289;DHT22;11813;50.834;4.280;2023-10-19T08:07:21;17.60;99.90
23289;DHT22;11813;50.834;4.280;2023-10-19T08:09:47;17.70;99.90
23289;DHT22;11813;50.834;4.280;2023-10-19T08:12:13;17.80;99.90
23289;DHT22;11813;50.834;4.280;2023-10-19T08:14:39;17.80;99.90
23289;DHT22;11813;50.834;4.280;2023-10-19T08:17:05;17.90;99.90
23289;DHT22;11813;50.834;4.280;2023-10-19T08:19:34;18.00;99.90
23289;DHT22;11813;50.834;4.280;2023-10-19T08:22:00;18.00;99.90
23289;DHT22;11813;50.834;4.280;2023-10-19T08:24:25;18.20;99.90
23289;DHT22;11813;50.834;4.280;2023-10-19T08:26:54;18.20;99.90
23289;DHT22;11813;50.834;4.280;2023-10-19T08:29:20;18.20;99.90
23289;DHT22;11813;50.834;4.280;2023-10-19T08:31:46;18.30;99.90
23289;DHT22;11813;50.834;4.280;2023-10-19T08:34:12;18.30;99.90
23289;DHT22;11813;50.834;4.280;2023-10-19T08:36:39;18.50;99.90
23289;DHT22;11813;50.834;4.280;2023-10-19T08:39:09;18.40;99.90
23289;DHT22;11813;50.834;4.280;2023-10-19T08:41:37;18.40;99.90
23289;DHT22;11813;50.834;4.280;2023-10-19T08:44:07;18.30;99.90
23289;DHT22;11813;50.834;4.280;2023-10-19T08:46:43;18.30;99.90
23289;DHT22;11813;50.834;4.280;2023-10-19T08:49:15;18.20;99.90
23289;DHT22;11813;50.834;4.280;2023-10-19T08:51:46;18.20;99.90
23289;DHT22;11813;50.834;4.280;2023-10-19T08:54:13;18.20;99.90
23289;DHT22;11813;50.834;4.280;2023-10-19T08:56:40;18.10;99.90
23289;DHT22;11813;50.834;4.280;2023-10-19T08:59:07;18.10;99.90
23289;DHT22;11813;50.834;4.280;2023-10-19T09:01:33;18.00;99.90
23289;DHT22;11813;50.834;4.280;2023-10-19T09:04:01;18.00;99.90
23289;DHT22;11813;50.834;4.280;2023-10-19T09:06:27;18.20;99.90
23289;DHT22;11813;50.834;4.280;2023-10-19T09:08:56;18.30;99.90
23289;DHT22;11813;50.834;4.280;2023-10-19T09:11:23;18.30;99.90
23289;DHT22;11813;50.834;4.280;2023-10-19T09:13:53;18.30;99.90
23289;DHT22;11813;50.834;4.280;2023-10-19T09:16:22;18.30;99.90
23289;DHT22;11813;50.834;4.280;2023-10-19T09:18:49;18.30;99.90
23289;DHT22;11813;50.834;4.280;2023-10-19T09:21:17;18.40;99.90
23289;DHT22;11813;50.834;4.280;2023-10-19T09:23:58;18.40;99.90
23289;DHT22;11813;50.834;4.280;2023-10-19T09:26:24;18.40;99.90
23289;DHT22;11813;50.834;4.280;2023-10-19T09:28:51;18.50;99.90
23289;DHT22;11813;50.834;4.280;2023-10-19T09:31:18;18.50;99.90
23289;DHT22;11813;50.834;4.280;2023-10-19T09:33:45;18.50;99.90
23289;DHT22;11813;50.834;4.280;2023-10-19T09:36:12;18.40;99.90
23289;DHT22;11813;50.834;4.280;2023-10-19T09:38:44;18.60;99.90
23289;DHT22;11813;50.834;4.280;2023-10-19T09:41:12;18.70;99.90
23289;DHT22;11813;50.834;4.280;2023-10-19T09:43:48;18.70;99.90
23289;DHT22;11813;50.834;4.280;2023-10-19T09:46:26;18.70;99.90
23289;DHT22;11813;50.834;4.280;2023-10-19T09:48:54;18.70;99.90
23289;DHT22;11813;50.834;4.280;2023-10-19T09:51:21;18.80;99.90
23289;DHT22;11813;50.834;4.280;2023-10-19T09:56:43;19.00;99.90
23289;DHT22;11813;50.834;4.280;2023-10-19T10:02:07;19.30;99.90
23289;DHT22;11813;50.834;4.280;2023-10-19T10:04:33;19.50;99.90
23289;DHT22;11813;50.834;4.280;2023-10-19T10:07:01;19.50;99.90
23289;DHT22;11813;50.834;4.280;2023-10-19T10:09:27;19.60;99.90
23289;DHT22;11813;50.834;4.280;2023-10-19T10:11:53;19.70;99.90
23289;DHT22;11813;50.834;4.280;2023-10-19T10:14:29;19.70;99.90
23289;DHT22;11813;50.834;4.280;2023-10-19T10:17:04;19.60;99.90
23289;DHT22;11813;50.834;4.280;2023-10-19T10:19:35;19.60;99.90
23289;DHT22;11813;50.834;4.280;2023-10-19T10:22:11;19.50;99.90
23289;DHT22;11813;50.834;4.280;2023-10-19T10:24:46;19.50;99.90
23289;DHT22;11813;50.834;4.280;2023-10-19T10:27:16;19.40;99.90
23289;DHT22;11813;50.834;4.280;2023-10-19T10:29:56;19.60;99.90
23289;DHT22;11813;50.834;4.280;2023-10-19T10:35:09;19.70;99.90
23289;DHT22;11813;50.834;4.280;2023-10-19T10:37:38;19.70;99.90
23289;DHT22;11813;50.834;4.280;2023-10-19T10:40:06;19.80;99.90
23289;DHT22;11813;50.834;4.280;2023-10-19T10:42:32;19.70;99.90
23289;DHT22;11813;50.834;4.280;2023-10-19T10:44:59;19.80;99.90
23289;DHT22;11813;50.834;4.280;2023-10-19T10:47:25;19.80;99.90
23289;DHT22;11813;50.834;4.280;2023-10-19T10:49:57;19.60;99.90
23289;DHT22;11813;50.834;4.280;2023-10-19T10:52:34;19.50;99.90
23289;DHT22;11813;50.834;4.280;2023-10-19T10:55:08;19.60;99.90
23289;DHT22;11813;50.834;4.280;2023-10-19T10:57:37;19.40;99.90
23289;DHT22;11813;50.834;4.280;2023-10-19T11:00:06;19.30;99.90
23289;DHT22;11813;50.834;4.280;2023-10-19T11:02:34;19.30;99.90
23289;DHT22;11813;50.834;4.280;2023-10-19T11:05:00;19.30;99.90
23289;DHT22;11813;50.834;4.280;2023-10-19T11:07:26;19.40;99.90
23289;DHT22;11813;50.834;4.280;2023-10-19T11:09:52;19.50;99.90
23289;DHT22;11813;50.834;4.280;2023-10-19T11:12:17;19.60;99.90
23289;DHT22;11813;50.834;4.280;2023-10-19T11:14:55;19.60;99.90
23289;DHT22;11813;50.834;4.280;2023-10-19T11:17:21;19.60;99.90
23289;DHT22;11813;50.834;4.280;2023-10-19T11:19:54;19.60;99.90
23289;DHT22;11813;50.834;4.280;2023-10-19T11:22:21;19.60;99.90
23289;DHT22;11813;50.834;4.280;2023-10-19T11:24:47;19.70;99.90
23289;DHT22;11813;50.834;4.280;2023-10-19T11:27:25;19.70;99.90
23289;DHT22;11813;50.834;4.280;2023-10-19T11:29:57;19.80;99.90
23289;DHT22;11813;50.834;4.280;2023-10-19T11:32:24;19.70;99.90
23289;DHT22;11813;50.834;4.280;2023-10-19T11:34:54;19.70;99.90
23289;DHT22;11813;50.834;4.280;2023-10-19T11:37:19;19.80;99.90
23289;DHT22;11813;50.834;4.280;2023-10-19T11:39:45;19.80;99.90
23289;DHT22;11813;50.834;4.280;2023-10-19T11:42:11;19.80;99.90
23289;DHT22;11813;50.834;4.280;2023-10-19T11:44:38;19.80;99.90
23289;DHT22;11813;50.834;4.280;2023-10-19T11:47:03;19.80;99.90
23289;DHT22;11813;50.834;4.280;2023-10-19T11:49:29;19.80;99.90
23289;DHT22;11813;50.834;4.280;2023-10-19T11:51:55;19.60;99.90
23289;DHT22;11813;50.834;4.280;2023-10-19T11:54:21;19.60;99.90
23289;DHT22;11813;50.834;4.280;2023-10-19T11:56:46;19.60;99.90
23289;DHT22;11813;50.834;4.280;2023-10-19T11:59:13;19.50;99.90
23289;DHT22;11813;50.834;4.280;2023-10-19T12:01:40;19.40;99.90
23289;DHT22;11813;50.834;4.280;2023-10-19T12:04:08;19.50;99.90
23289;DHT22;11813;50.834;4.280;2023-10-19T12:06:34;19.50;99.90
23289;DHT22;11813;50.834;4.280;2023-10-19T12:09:00;19.40;99.90
23289;DHT22;11813;50.834;4.280;2023-10-19T12:11:40;19.30;99.90
23289;DHT22;11813;50.834;4.280;2023-10-19T12:14:05;19.20;99.90
23289;DHT22;11813;50.834;4.280;2023-10-19T12:16:34;19.30;99.90
23289;DHT22;11813;50.834;4.280;2023-10-19T12:19:01;19.30;99.90
23289;DHT22;11813;50.834;4.280;2023-10-19T12:21:28;19.40;99.90
23289;DHT22;11813;50.834;4.280;2023-10-19T12:23:56;19.40;99.90
23289;DHT22;11813;50.834;4.280;2023-10-19T12:26:23;19.40;99.90
23289;DHT22;11813;50.834;4.280;2023-10-19T12:28:49;19.40;99.90
23289;DHT22;11813;50.834;4.280;2023-10-19T12:31:15;19.40;99.90
23289;DHT22;11813;50.834;4.280;2023-10-19T12:33:43;19.30;99.90
23289;DHT22;11813;50.834;4.280;2023-10-19T12:36:10;19.30;99.90
23289;DHT22;11813;50.834;4.280;2023-10-19T12:38:54;19.30;99.90
23289;DHT22;11813;50.834;4.280;2023-10-19T12:41:21;19.40;99.90
23289;DHT22;11813;50.834;4.280;2023-10-19T12:43:47;19.50;99.90
23289;DHT22;11813;50.834;4.280;2023-10-19T12:46:15;19.60;99.90
23289;DHT22;11813;50.834;4.280;2023-10-19T12:48:42;19.70;99.90
23289;DHT22;11813;50.834;4.280;2023-10-19T12:51:07;20.10;99.90
23289;DHT22;11813;50.834;4.280;2023-10-19T12:53:34;20.60;99.90
23289;DHT22;11813;50.834;4.280;2023-10-19T12:56:00;21.20;99.90
23289;DHT22;11813;50.834;4.280;2023-10-19T12:58:26;21.60;99.90
23289;DHT22;11813;50.834;4.280;2023-10-19T13:00:53;22.10;99.90
23289;DHT22;11813;50.834;4.280;2023-10-19T13:03:20;22.30;99.90
23289;DHT22;11813;50.834;4.280;2023-10-19T13:05:47;22.80;99.90
23289;DHT22;11813;50.834;4.280;2023-10-19T13:08:15;23.10;99.90
23289;DHT22;11813;50.834;4.280;2023-10-19T13:10:43;23.30;99.90
23289;DHT22;11813;50.834;4.280;2023-10-19T13:13:10;23.40;99.90
23289;DHT22;11813;50.834;4.280;2023-10-19T13:15:38;23.50;99.90
23289;DHT22;11813;50.834;4.280;2023-10-19T13:18:05;23.80;99.90
23289;DHT22;11813;50.834;4.280;2023-10-19T13:20:33;23.90;99.90
23289;DHT22;11813;50.834;4.280;2023-10-19T13:23:02;24.10;99.90
23289;DHT22;11813;50.834;4.280;2023-10-19T13:25:35;24.40;99.90
23289;DHT22;11813;50.834;4.280;2023-10-19T13:28:16;24.60;99.90
23289;DHT22;11813;50.834;4.280;2023-10-19T13:30:52;24.80;99.90
23289;DHT22;11813;50.834;4.280;2023-10-19T13:33:22;25.00;99.90
23289;DHT22;11813;50.834;4.280;2023-10-19T13:35:49;24.80;99.90
23289;DHT22;11813;50.834;4.280;2023-10-19T13:38:16;24.60;99.90
23289;DHT22;11813;50.834;4.280;2023-10-19T13:40:43;24.60;99.90
23289;DHT22;11813;50.834;4.280;2023-10-19T13:43:10;24.90;99.90
23289;DHT22;11813;50.834;4.280;2023-10-19T13:45:39;24.80;99.90
23289;DHT22;11813;50.834;4.280;2023-10-19T13:48:07;24.70;99.90
23289;DHT22;11813;50.834;4.280;2023-10-19T13:50:34;24.60;99.90
23289;DHT22;11813;50.834;4.280;2023-10-19T13:53:00;24.30;99.90
23289;DHT22;11813;50.834;4.280;2023-10-19T13:55:28;24.20;99.90
23289;DHT22;11813;50.834;4.280;2023-10-19T13:57:54;24.00;99.90
23289;DHT22;11813;50.834;4.280;2023-10-19T14:00:22;24.30;99.90
23289;DHT22;11813;50.834;4.280;2023-10-19T14:02:56;24.40;99.90
23289;DHT22;11813;50.834;4.280;2023-10-19T14:05:23;24.80;99.90
23289;DHT22;11813;50.834;4.280;2023-10-19T14:07:50;24.80;99.90
23289;DHT22;11813;50.834;4.280;2023-10-19T14:10:17;24.60;99.90
23289;DHT22;11813;50.834;4.280;2023-10-19T14:12:45;24.90;99.90
23289;DHT22;11813;50.834;4.280;2023-10-19T14:15:15;25.10;99.90
23289;DHT22;11813;50.834;4.280;2023-10-19T14:17:43;25.10;99.90
23289;DHT22;11813;50.834;4.280;2023-10-19T14:20:09;25.00;99.90
23289;DHT22;11813;50.834;4.280;2023-10-19T14:22:51;24.90;99.90
23289;DHT22;11813;50.834;4.280;2023-10-19T14:25:19;24.90;99.90
23289;DHT22;11813;50.834;4.280;2023-10-19T14:27:47;25.00;99.90
23289;DHT22;11813;50.834;4.280;2023-10-19T14:30:21;25.00;99.90
23289;DHT22;11813;50.834;4.280;2023-10-19T14:32:47;24.90;99.90
23289;DHT22;11813;50.834;4.280;2023-10-19T14:35:16;24.70;99.90
23289;DHT22;11813;50.834;4.280;2023-10-19T14:37:46;24.10;99.90
23289;DHT22;11813;50.834;4.280;2023-10-19T14:40:18;23.60;99.90
23289;DHT22;11813;50.834;4.280;2023-10-19T14:42:46;23.40;99.90
23289;DHT22;11813;50.834;4.280;2023-10-19T14:45:14;23.30;99.90
23289;DHT22;11813;50.834;4.280;2023-10-19T14:47:42;22.90;99.90
23289;DHT22;11813;50.834;4.280;2023-10-19T14:50:11;22.80;99.90
23289;DHT22;11813;50.834;4.280;2023-10-19T14:52:42;22.80;99.90
23289;DHT22;11813;50.834;4.280;2023-10-19T14:55:08;22.60;99.90
23289;DHT22;11813;50.834;4.280;2023-10-19T14:57:35;22.40;99.90
23289;DHT22;11813;50.834;4.280;2023-10-19T15:00:05;22.00;99.90
23289;DHT22;11813;50.834;4.280;2023-10-19T15:02:45;21.80;99.90
23289;DHT22;11813;50.834;4.280;2023-10-19T15:05:13;21.60;99.90
23289;DHT22;11813;50.834;4.280;2023-10-19T15:07:42;21.40;99.90
23289;DHT22;11813;50.834;4.280;2023-10-19T15:10:10;21.40;99.90
23289;DHT22;11813;50.834;4.280;2023-10-19T15:12:38;21.20;99.90
23289;DHT22;11813;50.834;4.280;2023-10-19T15:15:06;21.00;99.90
23289;DHT22;11813;50.834;4.280;2023-10-19T15:17:33;20.90;99.90
23289;DHT22;11813;50.834;4.280;2023-10-19T15:19:58;20.80;99.90
23289;DHT22;11813;50.834;4.280;2023-10-19T15:22:24;20.80;99.90
23289;DHT22;11813;50.834;4.280;2023-10-19T15:24:51;20.80;99.90
23289;DHT22;11813;50.834;4.280;2023-10-19T15:27:20;20.90;99.90
23289;DHT22;11813;50.834;4.280;2023-10-19T15:29:45;21.00;99.90
23289;DHT22;11813;50.834;4.280;2023-10-19T15:32:11;20.90;99.90
23289;DHT22;11813;50.834;4.280;2023-10-19T15:34:37;20.90;99.90
23289;DHT22;11813;50.834;4.280;2023-10-19T15:37:02;20.80;99.90
23289;DHT22;11813;50.834;4.280;2023-10-19T15:39:28;20.80;99.90
23289;DHT22;11813;50.834;4.280;2023-10-19T15:41:53;20.70;99.90
23289;DHT22;11813;50.834;4.280;2023-10-19T15:44:19;20.90;99.90
23289;DHT22;11813;50.834;4.280;2023-10-19T15:46:45;20.90;99.90
23289;DHT22;11813;50.834;4.280;2023-10-19T15:49:14;20.90;99.90
23289;DHT22;11813;50.834;4.280;2023-10-19T15:51:40;20.80;99.90
23289;DHT22;11813;50.834;4.280;2023-10-19T15:54:06;20.70;99.90
23289;DHT22;11813;50.834;4.280;2023-10-19T15:56:32;20.70;99.90
23289;DHT22;11813;50.834;4.280;2023-10-19T15:58:58;20.80;99.90